Terminal Aerodrome Forecast
Issued by NWS

Home | Current Version | Previous Version | Text Only | Print | Product List | Glossary On
Versions: 1 2 3 4 5 6 7 8 9 10 11 12 13 14 15 16 17 18 19 20 21 22 23 24 25 26
000
FTUS43 KMQT 212200 AAA
TAFCMX
TAF AMD
KCMX 212207Z 2122/2218 10008KT P6SM OVC004
     FM220300 13006KT 1/2SM FG VCSH OVC002
     FM221500 13006KT 6SM BR BKN015=

USA.gov is the U.S. government's official web portal to all federal, state and local government web resources and services.